Terminal Aerodrome Forecast
Issued by NWS

Home | Current Version | Previous Version | Graphics & Text | Print | Product List | Glossary On
Versions: 1 2 3 4 5 6 7 8 9 10 11 12 13 14 15 16 17 18 19 20 21 22 23 24
000
FTUS43 KMPX 241723
TAFAXN
TAF
KAXN 241723Z 2418/2518 20013G21KT P6SM SCT050 BKN250
     FM242000 21012G18KT P6SM BKN050 BKN250
      TEMPO 2420/2424 6SM -SHRA BR BKN025 OVC050
     FM250000 30009KT 6SM BR VCSH BKN003 OVC007
     FM250800 35010KT 4SM -DZ BR OVC003=

USA.gov is the U.S. government's official web portal to all federal, state and local government web resources and services.